sensor_id;sensor_type;location;lat;lon;timestamp;temperature;humidity
31084;DHT22;36333;51.382;0.016;2022-09-23T00:01:18;14.70;99.90
31084;DHT22;36333;51.382;0.016;2022-09-23T00:03:46;14.70;99.90
31084;DHT22;36333;51.382;0.016;2022-09-23T00:06:20;14.70;99.90
31084;DHT22;36333;51.382;0.016;2022-09-23T00:08:49;14.70;99.90
31084;DHT22;36333;51.382;0.016;2022-09-23T00:11:25;14.70;99.90
31084;DHT22;36333;51.382;0.016;2022-09-23T00:13:55;14.70;99.90
31084;DHT22;36333;51.382;0.016;2022-09-23T00:16:31;14.70;99.90
31084;DHT22;36333;51.382;0.016;2022-09-23T00:19:01;14.70;99.90
31084;DHT22;36333;51.382;0.016;2022-09-23T00:21:29;14.70;99.90
31084;DHT22;36333;51.382;0.016;2022-09-23T00:23:57;14.70;99.90
31084;DHT22;36333;51.382;0.016;2022-09-23T00:26:25;14.70;99.90
31084;DHT22;36333;51.382;0.016;2022-09-23T00:28:53;14.70;99.90
31084;DHT22;36333;51.382;0.016;2022-09-23T00:31:23;14.70;99.90
31084;DHT22;36333;51.382;0.016;2022-09-23T00:33:58;14.70;99.90
31084;DHT22;36333;51.382;0.016;2022-09-23T00:36:27;14.70;99.90
31084;DHT22;36333;51.382;0.016;2022-09-23T00:38:55;14.70;99.90
31084;DHT22;36333;51.382;0.016;2022-09-23T00:41:25;14.70;99.90
31084;DHT22;36333;51.382;0.016;2022-09-23T00:43:56;14.60;99.90
31084;DHT22;36333;51.382;0.016;2022-09-23T00:46:31;14.60;99.90
31084;DHT22;36333;51.382;0.016;2022-09-23T00:49:11;14.60;99.90
31084;DHT22;36333;51.382;0.016;2022-09-23T00:51:46;14.60;99.90
31084;DHT22;36333;51.382;0.016;2022-09-23T00:54:17;14.60;99.90
31084;DHT22;36333;51.382;0.016;2022-09-23T00:56:45;14.60;99.90
31084;DHT22;36333;51.382;0.016;2022-09-23T00:59:12;14.60;99.90
31084;DHT22;36333;51.382;0.016;2022-09-23T01:01:41;14.60;99.90
31084;DHT22;36333;51.382;0.016;2022-09-23T01:04:09;14.60;99.90
31084;DHT22;36333;51.382;0.016;2022-09-23T01:06:36;14.60;99.90
31084;DHT22;36333;51.382;0.016;2022-09-23T01:09:04;14.50;99.90
31084;DHT22;36333;51.382;0.016;2022-09-23T01:11:56;14.60;99.90
31084;DHT22;36333;51.382;0.016;2022-09-23T01:14:30;14.50;99.90
31084;DHT22;36333;51.382;0.016;2022-09-23T01:17:32;14.50;99.90
31084;DHT22;36333;51.382;0.016;2022-09-23T01:28:38;14.40;99.90
31084;DHT22;36333;51.382;0.016;2022-09-23T01:31:26;14.30;99.90
31084;DHT22;36333;51.382;0.016;2022-09-23T01:34:01;14.30;99.90
31084;DHT22;36333;51.382;0.016;2022-09-23T01:36:50;14.40;99.90
31084;DHT22;36333;51.382;0.016;2022-09-23T01:39:39;14.20;99.90
31084;DHT22;36333;51.382;0.016;2022-09-23T01:42:33;14.20;99.90
31084;DHT22;36333;51.382;0.016;2022-09-23T01:45:15;14.20;99.90
31084;DHT22;36333;51.382;0.016;2022-09-23T01:47:50;14.20;99.90
31084;DHT22;36333;51.382;0.016;2022-09-23T01:50:25;14.20;99.90
31084;DHT22;36333;51.382;0.016;2022-09-23T01:53:18;14.20;99.90
31084;DHT22;36333;51.382;0.016;2022-09-23T01:55:50;14.20;99.90
31084;DHT22;36333;51.382;0.016;2022-09-23T01:58:34;14.20;99.90
31084;DHT22;36333;51.382;0.016;2022-09-23T02:01:05;14.20;99.90
31084;DHT22;36333;51.382;0.016;2022-09-23T02:03:47;14.20;99.90
31084;DHT22;36333;51.382;0.016;2022-09-23T02:06:26;14.30;99.90
31084;DHT22;36333;51.382;0.016;2022-09-23T02:09:02;14.30;99.90
31084;DHT22;36333;51.382;0.016;2022-09-23T02:11:35;14.30;99.90
31084;DHT22;36333;51.382;0.016;2022-09-23T02:16:36;14.30;99.90
31084;DHT22;36333;51.382;0.016;2022-09-23T02:19:12;14.30;99.90
31084;DHT22;36333;51.382;0.016;2022-09-23T02:21:51;14.30;99.90
31084;DHT22;36333;51.382;0.016;2022-09-23T02:24:27;14.40;99.90
31084;DHT22;36333;51.382;0.016;2022-09-23T02:32:22;14.40;99.90
31084;DHT22;36333;51.382;0.016;2022-09-23T02:35:04;14.40;99.90
31084;DHT22;36333;51.382;0.016;2022-09-23T02:37:47;14.40;99.90
31084;DHT22;36333;51.382;0.016;2022-09-23T02:40:33;14.40;99.90
31084;DHT22;36333;51.382;0.016;2022-09-23T02:43:24;14.40;99.90
31084;DHT22;36333;51.382;0.016;2022-09-23T02:45:56;14.40;99.90
31084;DHT22;36333;51.382;0.016;2022-09-23T02:51:23;14.40;99.90
31084;DHT22;36333;51.382;0.016;2022-09-23T02:53:54;14.40;99.90
31084;DHT22;36333;51.382;0.016;2022-09-23T02:56:22;14.40;99.90
31084;DHT22;36333;51.382;0.016;2022-09-23T02:58:52;14.40;99.90
31084;DHT22;36333;51.382;0.016;2022-09-23T03:07:12;14.50;99.90
31084;DHT22;36333;51.382;0.016;2022-09-23T03:10:45;14.50;99.90
31084;DHT22;36333;51.382;0.016;2022-09-23T03:13:15;14.50;99.90
31084;DHT22;36333;51.382;0.016;2022-09-23T03:15:52;14.40;99.90
31084;DHT22;36333;51.382;0.016;2022-09-23T03:18:24;14.50;99.90
31084;DHT22;36333;51.382;0.016;2022-09-23T03:21:01;14.40;99.90
31084;DHT22;36333;51.382;0.016;2022-09-23T03:23:35;14.40;99.90
31084;DHT22;36333;51.382;0.016;2022-09-23T03:26:09;14.40;99.90
31084;DHT22;36333;51.382;0.016;2022-09-23T03:28:41;14.40;99.90
31084;DHT22;36333;51.382;0.016;2022-09-23T03:31:11;14.30;99.90
31084;DHT22;36333;51.382;0.016;2022-09-23T03:34:01;14.30;99.90
31084;DHT22;36333;51.382;0.016;2022-09-23T03:36:57;14.30;99.90
31084;DHT22;36333;51.382;0.016;2022-09-23T03:39:37;14.40;99.90
31084;DHT22;36333;51.382;0.016;2022-09-23T03:42:21;14.40;99.90
31084;DHT22;36333;51.382;0.016;2022-09-23T03:44:52;14.30;99.90
31084;DHT22;36333;51.382;0.016;2022-09-23T03:47:20;14.30;99.90
31084;DHT22;36333;51.382;0.016;2022-09-23T03:49:49;14.30;99.90
31084;DHT22;36333;51.382;0.016;2022-09-23T03:52:18;13.90;99.90
31084;DHT22;36333;51.382;0.016;2022-09-23T03:59:44;14.30;99.90
31084;DHT22;36333;51.382;0.016;2022-09-23T04:02:11;14.30;99.90
31084;DHT22;36333;51.382;0.016;2022-09-23T04:04:39;14.30;99.90
31084;DHT22;36333;51.382;0.016;2022-09-23T04:07:07;14.20;99.90
31084;DHT22;36333;51.382;0.016;2022-09-23T04:09:35;14.20;99.90
31084;DHT22;36333;51.382;0.016;2022-09-23T04:12:03;14.10;99.90
31084;DHT22;36333;51.382;0.016;2022-09-23T04:16:58;14.10;99.90
31084;DHT22;36333;51.382;0.016;2022-09-23T04:19:26;14.10;99.90
31084;DHT22;36333;51.382;0.016;2022-09-23T04:21:53;14.10;99.90
31084;DHT22;36333;51.382;0.016;2022-09-23T04:24:21;14.00;99.90
31084;DHT22;36333;51.382;0.016;2022-09-23T04:26:53;14.00;99.90
31084;DHT22;36333;51.382;0.016;2022-09-23T04:29:22;14.00;99.90
31084;DHT22;36333;51.382;0.016;2022-09-23T04:31:50;14.00;99.90
31084;DHT22;36333;51.382;0.016;2022-09-23T04:34:19;14.00;99.90
31084;DHT22;36333;51.382;0.016;2022-09-23T04:36:47;14.10;99.90
31084;DHT22;36333;51.382;0.016;2022-09-23T04:39:15;14.10;99.90
31084;DHT22;36333;51.382;0.016;2022-09-23T04:41:44;14.10;99.90
31084;DHT22;36333;51.382;0.016;2022-09-23T04:44:12;14.10;99.90
31084;DHT22;36333;51.382;0.016;2022-09-23T04:46:41;14.10;99.90
31084;DHT22;36333;51.382;0.016;2022-09-23T04:49:10;14.10;99.90
31084;DHT22;36333;51.382;0.016;2022-09-23T04:51:39;14.00;99.90
31084;DHT22;36333;51.382;0.016;2022-09-23T04:54:11;14.00;99.90
31084;DHT22;36333;51.382;0.016;2022-09-23T04:56:38;14.00;99.90
31084;DHT22;36333;51.382;0.016;2022-09-23T04:59:06;14.00;99.90
31084;DHT22;36333;51.382;0.016;2022-09-23T05:01:34;14.00;99.90
31084;DHT22;36333;51.382;0.016;2022-09-23T05:04:05;14.00;99.90
31084;DHT22;36333;51.382;0.016;2022-09-23T05:06:34;14.00;99.90
31084;DHT22;36333;51.382;0.016;2022-09-23T05:09:05;14.00;99.90
31084;DHT22;36333;51.382;0.016;2022-09-23T05:11:34;14.00;99.90
31084;DHT22;36333;51.382;0.016;2022-09-23T05:14:02;14.10;99.90
31084;DHT22;36333;51.382;0.016;2022-09-23T05:16:29;14.10;99.90
31084;DHT22;36333;51.382;0.016;2022-09-23T05:18:57;14.10;99.90
31084;DHT22;36333;51.382;0.016;2022-09-23T05:21:25;14.10;99.90
31084;DHT22;36333;51.382;0.016;2022-09-23T05:23:56;14.10;99.90
31084;DHT22;36333;51.382;0.016;2022-09-23T05:26:27;14.10;99.90
31084;DHT22;36333;51.382;0.016;2022-09-23T05:28:55;14.10;99.90
31084;DHT22;36333;51.382;0.016;2022-09-23T05:31:25;14.20;99.90
31084;DHT22;36333;51.382;0.016;2022-09-23T05:33:59;14.20;99.90
31084;DHT22;36333;51.382;0.016;2022-09-23T05:36:28;14.20;99.90
31084;DHT22;36333;51.382;0.016;2022-09-23T05:39:03;14.20;99.90
31084;DHT22;36333;51.382;0.016;2022-09-23T05:41:31;14.30;99.90
31084;DHT22;36333;51.382;0.016;2022-09-23T05:44:00;14.20;99.90
31084;DHT22;36333;51.382;0.016;2022-09-23T05:46:29;14.30;99.90
31084;DHT22;36333;51.382;0.016;2022-09-23T05:48:58;14.30;99.90
31084;DHT22;36333;51.382;0.016;2022-09-23T05:51:30;14.30;99.90
31084;DHT22;36333;51.382;0.016;2022-09-23T05:54:04;14.30;99.90
31084;DHT22;36333;51.382;0.016;2022-09-23T05:56:33;15.10;99.90
31084;DHT22;36333;51.382;0.016;2022-09-23T05:59:01;14.40;99.90
31084;DHT22;36333;51.382;0.016;2022-09-23T06:01:32;14.40;99.90
31084;DHT22;36333;51.382;0.016;2022-09-23T06:04:02;14.40;99.90
31084;DHT22;36333;51.382;0.016;2022-09-23T06:06:33;14.40;99.90
31084;DHT22;36333;51.382;0.016;2022-09-23T06:09:02;14.50;99.90
31084;DHT22;36333;51.382;0.016;2022-09-23T06:11:32;14.50;99.90
31084;DHT22;36333;51.382;0.016;2022-09-23T06:14:00;14.50;99.90
31084;DHT22;36333;51.382;0.016;2022-09-23T06:16:31;14.60;99.90
31084;DHT22;36333;51.382;0.016;2022-09-23T06:19:00;14.60;99.90
31084;DHT22;36333;51.382;0.016;2022-09-23T06:21:38;14.60;99.90
31084;DHT22;36333;51.382;0.016;2022-09-23T06:26:35;13.70;99.90
31084;DHT22;36333;51.382;0.016;2022-09-23T06:29:09;14.60;99.90
31084;DHT22;36333;51.382;0.016;2022-09-23T06:34:12;14.60;99.90
31084;DHT22;36333;51.382;0.016;2022-09-23T06:36:42;14.50;99.90
31084;DHT22;36333;51.382;0.016;2022-09-23T06:39:15;14.60;99.90
31084;DHT22;36333;51.382;0.016;2022-09-23T06:41:50;14.70;99.90
31084;DHT22;36333;51.382;0.016;2022-09-23T06:44:18;14.50;99.90
31084;DHT22;36333;51.382;0.016;2022-09-23T06:49:13;14.60;99.90
31084;DHT22;36333;51.382;0.016;2022-09-23T06:51:41;14.70;99.90
31084;DHT22;36333;51.382;0.016;2022-09-23T06:56:42;14.70;99.90
31084;DHT22;36333;51.382;0.016;2022-09-23T07:04:08;14.80;99.90
31084;DHT22;36333;51.382;0.016;2022-09-23T07:09:05;14.90;99.90
31084;DHT22;36333;51.382;0.016;2022-09-23T07:11:34;15.10;99.90
31084;DHT22;36333;51.382;0.016;2022-09-23T07:18:59;14.90;99.90
31084;DHT22;36333;51.382;0.016;2022-09-23T07:21:26;15.00;99.90
31084;DHT22;36333;51.382;0.016;2022-09-23T07:23:54;15.00;99.90
31084;DHT22;36333;51.382;0.016;2022-09-23T07:26:24;15.10;99.90
31084;DHT22;36333;51.382;0.016;2022-09-23T07:28:56;15.10;99.90
31084;DHT22;36333;51.382;0.016;2022-09-23T07:31:34;15.30;99.90
31084;DHT22;36333;51.382;0.016;2022-09-23T07:34:09;15.40;99.90
31084;DHT22;36333;51.382;0.016;2022-09-23T07:36:38;15.50;99.90
31084;DHT22;36333;51.382;0.016;2022-09-23T07:39:10;15.50;99.90
31084;DHT22;36333;51.382;0.016;2022-09-23T07:41:38;15.50;99.90
31084;DHT22;36333;51.382;0.016;2022-09-23T07:44:09;15.60;99.90
31084;DHT22;36333;51.382;0.016;2022-09-23T07:46:38;15.50;99.90
31084;DHT22;36333;51.382;0.016;2022-09-23T07:51:36;15.50;99.90
31084;DHT22;36333;51.382;0.016;2022-09-23T07:54:06;16.00;99.90
31084;DHT22;36333;51.382;0.016;2022-09-23T07:56:37;15.50;99.90
31084;DHT22;36333;51.382;0.016;2022-09-23T07:59:06;15.60;99.90
31084;DHT22;36333;51.382;0.016;2022-09-23T08:01:41;15.60;99.90
31084;DHT22;36333;51.382;0.016;2022-09-23T08:06:51;15.60;99.90
31084;DHT22;36333;51.382;0.016;2022-09-23T08:09:23;15.50;99.90
31084;DHT22;36333;51.382;0.016;2022-09-23T08:11:51;15.50;99.90
31084;DHT22;36333;51.382;0.016;2022-09-23T08:14:18;15.50;99.90
31084;DHT22;36333;51.382;0.016;2022-09-23T08:16:47;15.60;99.90
31084;DHT22;36333;51.382;0.016;2022-09-23T08:19:15;15.60;99.90
31084;DHT22;36333;51.382;0.016;2022-09-23T08:21:46;15.40;99.90
31084;DHT22;36333;51.382;0.016;2022-09-23T08:24:16;15.70;99.90
31084;DHT22;36333;51.382;0.016;2022-09-23T08:26:45;15.70;99.90
31084;DHT22;36333;51.382;0.016;2022-09-23T08:29:14;15.80;99.90
31084;DHT22;36333;51.382;0.016;2022-09-23T08:34:12;15.80;99.90
31084;DHT22;36333;51.382;0.016;2022-09-23T08:36:39;15.90;99.90
31084;DHT22;36333;51.382;0.016;2022-09-23T08:39:09;15.90;99.90
31084;DHT22;36333;51.382;0.016;2022-09-23T08:42:06;19.00;99.90
31084;DHT22;36333;51.382;0.016;2022-09-23T08:55:11;15.90;99.90
31084;DHT22;36333;51.382;0.016;2022-09-23T09:03:25;16.30;99.90
31084;DHT22;36333;51.382;0.016;2022-09-23T09:05:55;16.30;99.90
31084;DHT22;36333;51.382;0.016;2022-09-23T09:08:35;16.40;99.90
31084;DHT22;36333;51.382;0.016;2022-09-23T09:11:04;16.40;99.90
31084;DHT22;36333;51.382;0.016;2022-09-23T09:13:34;16.30;99.90
31084;DHT22;36333;51.382;0.016;2022-09-23T09:19:24;16.20;99.90
31084;DHT22;36333;51.382;0.016;2022-09-23T09:21:56;16.20;99.90
31084;DHT22;36333;51.382;0.016;2022-09-23T09:24:31;16.20;99.90
31084;DHT22;36333;51.382;0.016;2022-09-23T09:27:04;16.30;99.90
31084;DHT22;36333;51.382;0.016;2022-09-23T09:29:53;16.30;99.90
31084;DHT22;36333;51.382;0.016;2022-09-23T09:32:37;16.40;99.90
31084;DHT22;36333;51.382;0.016;2022-09-23T09:35:41;16.40;99.90
31084;DHT22;36333;51.382;0.016;2022-09-23T09:38:05;16.50;99.90
31084;DHT22;36333;51.382;0.016;2022-09-23T09:40:45;16.60;99.90
31084;DHT22;36333;51.382;0.016;2022-09-23T09:43:17;16.70;99.90
31084;DHT22;36333;51.382;0.016;2022-09-23T09:45:59;16.80;99.90
31084;DHT22;36333;51.382;0.016;2022-09-23T09:51:22;17.10;99.90
31084;DHT22;36333;51.382;0.016;2022-09-23T09:53:50;17.20;99.90
31084;DHT22;36333;51.382;0.016;2022-09-23T09:56:29;17.30;99.90
31084;DHT22;36333;51.382;0.016;2022-09-23T09:59:08;17.40;99.90
31084;DHT22;36333;51.382;0.016;2022-09-23T10:01:39;15.30;99.90
31084;DHT22;36333;51.382;0.016;2022-09-23T10:04:30;17.20;99.90
31084;DHT22;36333;51.382;0.016;2022-09-23T10:09:34;16.60;99.90
31084;DHT22;36333;51.382;0.016;2022-09-23T10:14:37;16.30;99.90
31084;DHT22;36333;51.382;0.016;2022-09-23T10:17:06;16.40;99.90
31084;DHT22;36333;51.382;0.016;2022-09-23T10:19:35;16.20;99.90
31084;DHT22;36333;51.382;0.016;2022-09-23T10:22:18;16.10;99.90
31084;DHT22;36333;51.382;0.016;2022-09-23T10:24:49;16.10;99.90
31084;DHT22;36333;51.382;0.016;2022-09-23T10:27:30;16.10;99.90
31084;DHT22;36333;51.382;0.016;2022-09-23T10:30:03;16.10;99.90
31084;DHT22;36333;51.382;0.016;2022-09-23T10:32:35;16.10;99.90
31084;DHT22;36333;51.382;0.016;2022-09-23T10:55:12;16.40;99.90
31084;DHT22;36333;51.382;0.016;2022-09-23T11:06:15;16.30;99.90
31084;DHT22;36333;51.382;0.016;2022-09-23T11:11:45;16.30;99.90
31084;DHT22;36333;51.382;0.016;2022-09-23T11:14:41;16.30;99.90
31084;DHT22;36333;51.382;0.016;2022-09-23T11:17:37;16.30;99.90
31084;DHT22;36333;51.382;0.016;2022-09-23T11:26:02;16.60;99.90
31084;DHT22;36333;51.382;0.016;2022-09-23T11:31:20;16.90;99.90
31084;DHT22;36333;51.382;0.016;2022-09-23T11:37:02;17.10;99.90
31084;DHT22;36333;51.382;0.016;2022-09-23T11:39:39;17.20;99.90
31084;DHT22;36333;51.382;0.016;2022-09-23T11:42:31;17.40;99.90
31084;DHT22;36333;51.382;0.016;2022-09-23T11:45:23;17.70;99.90
31084;DHT22;36333;51.382;0.016;2022-09-23T11:48:17;18.00;99.90
31084;DHT22;36333;51.382;0.016;2022-09-23T11:50:52;18.30;99.90
31084;DHT22;36333;51.382;0.016;2022-09-23T11:53:39;18.70;99.90
31084;DHT22;36333;51.382;0.016;2022-09-23T12:05:18;18.90;99.90
31084;DHT22;36333;51.382;0.016;2022-09-23T12:07:56;18.90;99.90
31084;DHT22;36333;51.382;0.016;2022-09-23T12:10:44;18.80;99.90
31084;DHT22;36333;51.382;0.016;2022-09-23T12:13:31;18.60;99.90
31084;DHT22;36333;51.382;0.016;2022-09-23T12:26:54;17.90;99.90
31084;DHT22;36333;51.382;0.016;2022-09-23T12:29:25;17.80;99.90
31084;DHT22;36333;51.382;0.016;2022-09-23T12:32:00;17.70;99.90
31084;DHT22;36333;51.382;0.016;2022-09-23T12:34:41;17.70;99.90
31084;DHT22;36333;51.382;0.016;2022-09-23T12:39:50;17.60;99.90
31084;DHT22;36333;51.382;0.016;2022-09-23T12:42:19;17.70;99.90
31084;DHT22;36333;51.382;0.016;2022-09-23T12:44:48;17.80;99.90
31084;DHT22;36333;51.382;0.016;2022-09-23T12:54:48;18.50;99.90
31084;DHT22;36333;51.382;0.016;2022-09-23T13:06:04;18.50;99.90
31084;DHT22;36333;51.382;0.016;2022-09-23T13:08:54;18.30;99.90
31084;DHT22;36333;51.382;0.016;2022-09-23T13:11:27;18.30;99.90
31084;DHT22;36333;51.382;0.016;2022-09-23T13:13:58;18.30;99.90
31084;DHT22;36333;51.382;0.016;2022-09-23T13:16:35;18.20;99.90
31084;DHT22;36333;51.382;0.016;2022-09-23T13:24:43;19.80;99.90
31084;DHT22;36333;51.382;0.016;2022-09-23T13:27:34;18.20;99.90
31084;DHT22;36333;51.382;0.016;2022-09-23T13:30:17;18.20;99.90
31084;DHT22;36333;51.382;0.016;2022-09-23T13:35:38;18.40;99.90
31084;DHT22;36333;51.382;0.016;2022-09-23T13:38:15;18.60;99.90
31084;DHT22;36333;51.382;0.016;2022-09-23T13:40:44;18.70;99.90
31084;DHT22;36333;51.382;0.016;2022-09-23T13:43:36;18.90;99.90
31084;DHT22;36333;51.382;0.016;2022-09-23T13:46:57;18.90;99.80
31084;DHT22;36333;51.382;0.016;2022-09-23T13:48:58;18.90;99.90
31084;DHT22;36333;51.382;0.016;2022-09-23T13:51:28;18.90;98.40
31084;DHT22;36333;51.382;0.016;2022-09-23T13:54:00;18.90;99.20
31084;DHT22;36333;51.382;0.016;2022-09-23T13:56:30;18.90;99.70
31084;DHT22;36333;51.382;0.016;2022-09-23T13:59:35;19.10;99.70
31084;DHT22;36333;51.382;0.016;2022-09-23T14:02:09;19.30;99.50
31084;DHT22;36333;51.382;0.016;2022-09-23T14:04:37;19.50;99.50
31084;DHT22;36333;51.382;0.016;2022-09-23T14:07:10;19.70;99.30
31084;DHT22;36333;51.382;0.016;2022-09-23T14:09:50;19.90;99.10
31084;DHT22;36333;51.382;0.016;2022-09-23T14:12:18;20.00;98.10
31084;DHT22;36333;51.382;0.016;2022-09-23T14:14:49;20.10;97.90
31084;DHT22;36333;51.382;0.016;2022-09-23T14:17:20;20.00;98.20
31084;DHT22;36333;51.382;0.016;2022-09-23T14:19:52;19.90;97.40
31084;DHT22;36333;51.382;0.016;2022-09-23T14:22:28;19.80;98.00
31084;DHT22;36333;51.382;0.016;2022-09-23T14:25:13;19.70;98.20
31084;DHT22;36333;51.382;0.016;2022-09-23T14:27:43;19.70;98.30
31084;DHT22;36333;51.382;0.016;2022-09-23T14:30:14;19.70;98.40
31084;DHT22;36333;51.382;0.016;2022-09-23T14:32:44;19.70;97.40
31084;DHT22;36333;51.382;0.016;2022-09-23T14:35:25;19.50;97.80
31084;DHT22;36333;51.382;0.016;2022-09-23T14:38:04;19.50;98.00
31084;DHT22;36333;51.382;0.016;2022-09-23T14:40:56;19.60;98.70
31084;DHT22;36333;51.382;0.016;2022-09-23T14:43:48;19.90;98.80
31084;DHT22;36333;51.382;0.016;2022-09-23T14:46:21;20.10;98.40
31084;DHT22;36333;51.382;0.016;2022-09-23T14:48:57;20.20;97.40
31084;DHT22;36333;51.382;0.016;2022-09-23T14:51:34;20.10;97.40
31084;DHT22;36333;51.382;0.016;2022-09-23T14:56:51;19.90;98.00
31084;DHT22;36333;51.382;0.016;2022-09-23T14:59:30;19.90;97.90
31084;DHT22;36333;51.382;0.016;2022-09-23T15:01:59;19.80;98.20
31084;DHT22;36333;51.382;0.016;2022-09-23T15:04:29;19.80;98.40
31084;DHT22;36333;51.382;0.016;2022-09-23T15:07:17;19.70;98.00
31084;DHT22;36333;51.382;0.016;2022-09-23T15:09:46;19.70;97.80
31084;DHT22;36333;51.382;0.016;2022-09-23T15:12:16;19.00;97.20
31084;DHT22;36333;51.382;0.016;2022-09-23T15:14:52;19.10;97.50
31084;DHT22;36333;51.382;0.016;2022-09-23T15:17:28;19.90;97.90
31084;DHT22;36333;51.382;0.016;2022-09-23T15:20:03;19.20;97.70
31084;DHT22;36333;51.382;0.016;2022-09-23T15:22:44;19.10;98.00
31084;DHT22;36333;51.382;0.016;2022-09-23T15:32:58;19.00;98.10
31084;DHT22;36333;51.382;0.016;2022-09-23T15:35:26;20.50;99.10
31084;DHT22;36333;51.382;0.016;2022-09-23T15:37:56;18.90;98.50
31084;DHT22;36333;51.382;0.016;2022-09-23T15:40:27;18.90;98.80
31084;DHT22;36333;51.382;0.016;2022-09-23T15:42:58;19.10;98.40
31084;DHT22;36333;51.382;0.016;2022-09-23T15:45:37;19.20;98.60
31084;DHT22;36333;51.382;0.016;2022-09-23T15:48:14;19.50;98.30
31084;DHT22;36333;51.382;0.016;2022-09-23T15:50:42;20.30;97.50
31084;DHT22;36333;51.382;0.016;2022-09-23T15:53:20;20.10;97.00
31084;DHT22;36333;51.382;0.016;2022-09-23T15:55:48;20.20;97.10
31084;DHT22;36333;51.382;0.016;2022-09-23T15:58:20;20.30;96.70
31084;DHT22;36333;51.382;0.016;2022-09-23T16:00:48;20.20;96.40
31084;DHT22;36333;51.382;0.016;2022-09-23T16:03:23;19.60;96.50
31084;DHT22;36333;51.382;0.016;2022-09-23T16:06:00;20.00;96.80
31084;DHT22;36333;51.382;0.016;2022-09-23T16:08:31;19.70;96.30
31084;DHT22;36333;51.382;0.016;2022-09-23T16:10:59;19.70;96.60
31084;DHT22;36333;51.382;0.016;2022-09-23T16:18:26;19.50;96.90
31084;DHT22;36333;51.382;0.016;2022-09-23T16:20:53;19.50;97.20
31084;DHT22;36333;51.382;0.016;2022-09-23T16:23:26;19.50;97.30
31084;DHT22;36333;51.382;0.016;2022-09-23T16:26:10;19.40;97.00
31084;DHT22;36333;51.382;0.016;2022-09-23T16:28:45;19.30;97.10
31084;DHT22;36333;51.382;0.016;2022-09-23T16:31:14;18.90;97.10
31084;DHT22;36333;51.382;0.016;2022-09-23T16:33:46;18.70;97.30
31084;DHT22;36333;51.382;0.016;2022-09-23T16:36:26;18.70;97.50
31084;DHT22;36333;51.382;0.016;2022-09-23T16:38:57;18.40;97.60
31084;DHT22;36333;51.382;0.016;2022-09-23T16:41:27;18.40;97.80
31084;DHT22;36333;51.382;0.016;2022-09-23T16:43:55;17.90;97.90
31084;DHT22;36333;51.382;0.016;2022-09-23T16:46:23;18.00;98.20
31084;DHT22;36333;51.382;0.016;2022-09-23T16:48:50;17.90;98.30
31084;DHT22;36333;51.382;0.016;2022-09-23T16:51:21;17.70;98.60
31084;DHT22;36333;51.382;0.016;2022-09-23T16:53:51;17.70;98.70
31084;DHT22;36333;51.382;0.016;2022-09-23T16:56:20;17.60;98.70
31084;DHT22;36333;51.382;0.016;2022-09-23T17:01:24;17.80;99.40
31084;DHT22;36333;51.382;0.016;2022-09-23T17:04:12;17.40;99.30
31084;DHT22;36333;51.382;0.016;2022-09-23T17:06:50;17.40;99.40
31084;DHT22;36333;51.382;0.016;2022-09-23T17:09:21;17.30;99.60
31084;DHT22;36333;51.382;0.016;2022-09-23T17:12:05;17.50;99.80
31084;DHT22;36333;51.382;0.016;2022-09-23T17:14:35;17.10;99.80
31084;DHT22;36333;51.382;0.016;2022-09-23T17:17:03;17.00;99.90
31084;DHT22;36333;51.382;0.016;2022-09-23T17:19:31;16.90;99.90
31084;DHT22;36333;51.382;0.016;2022-09-23T17:22:00;16.80;99.90
31084;DHT22;36333;51.382;0.016;2022-09-23T17:26:55;16.60;99.90
31084;DHT22;36333;51.382;0.016;2022-09-23T17:36:58;16.30;99.90
31084;DHT22;36333;51.382;0.016;2022-09-23T17:41:55;16.00;99.90
31084;DHT22;36333;51.382;0.016;2022-09-23T17:46:52;15.90;99.90
31084;DHT22;36333;51.382;0.016;2022-09-23T17:51:50;15.70;99.90
31084;DHT22;36333;51.382;0.016;2022-09-23T17:54:17;15.60;99.90
31084;DHT22;36333;51.382;0.016;2022-09-23T17:56:45;15.50;99.90
31084;DHT22;36333;51.382;0.016;2022-09-23T17:59:12;15.50;99.90
31084;DHT22;36333;51.382;0.016;2022-09-23T18:01:40;15.40;99.90
31084;DHT22;36333;51.382;0.016;2022-09-23T18:04:08;15.30;99.90
31084;DHT22;36333;51.382;0.016;2022-09-23T18:06:36;15.40;99.90
31084;DHT22;36333;51.382;0.016;2022-09-23T18:09:07;15.40;99.90
31084;DHT22;36333;51.382;0.016;2022-09-23T18:11:37;15.50;99.90
31084;DHT22;36333;51.382;0.016;2022-09-23T18:16:43;15.60;99.90
31084;DHT22;36333;51.382;0.016;2022-09-23T18:19:13;15.70;99.90
31084;DHT22;36333;51.382;0.016;2022-09-23T18:21:46;15.70;99.90
31084;DHT22;36333;51.382;0.016;2022-09-23T18:24:17;15.70;99.90
31084;DHT22;36333;51.382;0.016;2022-09-23T18:29:31;15.80;99.90
31084;DHT22;36333;51.382;0.016;2022-09-23T18:36:55;15.80;99.90
31084;DHT22;36333;51.382;0.016;2022-09-23T18:39:22;15.80;99.90
31084;DHT22;36333;51.382;0.016;2022-09-23T18:41:50;15.80;99.90
31084;DHT22;36333;51.382;0.016;2022-09-23T18:44:17;15.80;99.90
31084;DHT22;36333;51.382;0.016;2022-09-23T18:46:46;15.80;99.90
31084;DHT22;36333;51.382;0.016;2022-09-23T18:49:14;15.80;99.90
31084;DHT22;36333;51.382;0.016;2022-09-23T18:52:01;15.80;99.90
31084;DHT22;36333;51.382;0.016;2022-09-23T18:54:28;15.90;99.90
31084;DHT22;36333;51.382;0.016;2022-09-23T18:56:56;16.20;99.90
31084;DHT22;36333;51.382;0.016;2022-09-23T18:59:26;16.10;99.90
31084;DHT22;36333;51.382;0.016;2022-09-23T19:01:59;16.00;99.90
31084;DHT22;36333;51.382;0.016;2022-09-23T19:09:26;16.10;99.90
31084;DHT22;36333;51.382;0.016;2022-09-23T19:11:54;16.10;99.90
31084;DHT22;36333;51.382;0.016;2022-09-23T19:14:21;16.10;99.90
31084;DHT22;36333;51.382;0.016;2022-09-23T19:19:20;16.00;99.90
31084;DHT22;36333;51.382;0.016;2022-09-23T19:21:48;16.00;99.90
31084;DHT22;36333;51.382;0.016;2022-09-23T19:24:15;16.00;99.90
31084;DHT22;36333;51.382;0.016;2022-09-23T19:29:16;15.90;99.90
31084;DHT22;36333;51.382;0.016;2022-09-23T19:34:16;15.90;99.90
31084;DHT22;36333;51.382;0.016;2022-09-23T19:36:45;15.90;99.90
31084;DHT22;36333;51.382;0.016;2022-09-23T19:39:18;15.90;99.90
31084;DHT22;36333;51.382;0.016;2022-09-23T19:41:47;15.90;99.90
31084;DHT22;36333;51.382;0.016;2022-09-23T19:44:15;15.90;99.90
31084;DHT22;36333;51.382;0.016;2022-09-23T19:49:12;15.90;99.90
31084;DHT22;36333;51.382;0.016;2022-09-23T19:51:42;15.90;99.90
31084;DHT22;36333;51.382;0.016;2022-09-23T19:54:13;15.80;99.90
31084;DHT22;36333;51.382;0.016;2022-09-23T19:56:50;15.80;99.90
31084;DHT22;36333;51.382;0.016;2022-09-23T20:01:47;15.80;99.90
31084;DHT22;36333;51.382;0.016;2022-09-23T20:04:15;15.80;99.90
31084;DHT22;36333;51.382;0.016;2022-09-23T20:06:43;15.70;99.90
31084;DHT22;36333;51.382;0.016;2022-09-23T20:09:12;15.70;99.90
31084;DHT22;36333;51.382;0.016;2022-09-23T20:14:10;15.60;99.90